Oita Airport
RJFO : now visible

Airfield :











YOU CAN JOIN US ON...

 
LOGIN :

Register | Disclaimer

   EN    FR    IT 

 









Legend :    VFR   Marginal VFR   IFR   Intensive IFR   Very Intensive IFR
Visi :
Ceiling :
>= 8 km
>= 3000ft
5 to 8 km
1000 to 3000 ft
1500m to 5 km
500 to 1000 ft
800 to 1500m
200 to 500 ft
< 800m
< 200 ft
Symbols :   Thunderstorms  Fog  Heavy snow  Heavy precipitations  Wind > 20 kt






- Airport Elevation : 19 ft
- IATA code : OIT


RJFO - Oita

CURRENT METAR :
  • 131200Z 27005KT 9999 FEW030 SCT080 BKN110 17/15 Q1015

EXPIRED METARs :
  • 131100Z VRB02KT 9999 FEW030 SCT050 BKN090 18/16 Q1014
  • 131000Z VRB02KT 9999 -RA FEW030 SCT050 BKN070 18/15 Q1015

TAF TAF RJFO
Valid from the 13 at 12:00 until the 14 at 18:00 UTC


131105Z 1312/1418 24005KT 9999 -RA FEW025 BKN050
BECMG 1316/1318 29010KT
BECMG 1319/1321 32018G28KT
BECMG 1409/1412 29005KT



MET'MAP, your aeronautical weather chart ! - Copyright ORBIFLY December 2007 - Disclaimer

ORBIFLY MET'MAP TEAM :

Programming & Development : Alexandra Zaïnal
Concept & Development : Baudouin d'Aumeries
Co-Development & Prog : Marc-Olivier Méhu
Technical & hardware support : Manuel Goepfert

Contact : metmap@orbifly.com




SOURCES & CREDITS :

   NOAA       Earth
Advisory